Anthony, Pennsylvania
Current Conditions -  °F | °C
As of 9:54 AM on Friday 19 Dec 2014 (Local Time) from KIPT Reporting Station
Overcast Overcast  
Wind Chill: 26°   Ceiling: 3300
Heat Index: 35°   Visibility: 10mi
Dew Point: 20°   Wind: 13mph
Humidity: 54%   Direction: 290°WNW
Pressure: 30.13"   Gusts: NA
Location:  41.1183°N, 76.7254°W
Report Text: KIPT 191454Z 29011KT 10SM OVC033 02/M07 A3013 RMK AO2 SLP206 T00171067 53022
Loading
Personal Weather Stations






























Interactive Weather Map New forecast layout! Learn more

10-Day Weather Forecast

Advertisements
Track Severe Weather on mobile